Vancouver, Canada
Current Conditions -  °F | °C
As of 6:00 AM on Thursday 23 Oct 2014 (Local Time) from CYVR Reporting Station
Light Rain Light Rain  
Wind Chill: 10°   Ceiling: 5500
Heat Index: 10°   Visibility: 15mi
Dew Point:   Wind: 10mph
Humidity: 94%   Direction: 90°E
Pressure: 29.68"   Gusts: NA
Location:  49.26°N, 123.11°W
Report Text: CYVR 231300Z 09009KT 15SM -RA BKN055 OVC082 10/09 A2968 RMK SC6AC2 SLP049
Loading
Personal Weather Stations






























Interactive Weather Map
Tropical Storm Tracking
New forecast layout! Learn more

10-Day Weather Forecast

Advertisements
Track Severe Weather on mobile